Time;durP1;ratioP1;P1;durP2;ratioP2;P2;SDS_P1;SDS_P2;PMS_P1;PMS_P2;Temp;Humidity;BMP_temperature;BMP_pressure;BME280_temperature;BME280_humidity;BME280_pressure;Samples;Min_cycle;Max_cycle;Signal;HPM_P1;HPM_P2
2022/05/31 00:00:09;;;;;;;4.40;2.20;;;;;;;15.81;75.93;99971.97;6272041;28;20045;-73
2022/05/31 00:03:10;;;;;;;6.78;2.10;;;;;;;15.85;76.46;99968.13;6270981;28;20404;-73
2022/05/31 00:06:11;;;;;;;8.98;2.58;;;;;;;15.88;76.03;99957.38;6270774;28;20045;-73
2022/05/31 00:09:13;;;;;;;6.65;2.30;;;;;;;15.85;75.92;99956.78;6271773;28;20123;-73
2022/05/31 00:12:14;;;;;;;3.67;2.10;;;;;;;15.81;76.61;99953.56;6271704;28;20491;-74
2022/05/31 00:15:17;;;;;;;4.30;2.22;;;;;;;15.82;76.11;99939.47;6271782;28;20044;-73
2022/05/31 00:18:17;;;;;;;;;;;;;;;15.85;76.66;99933.94;6272265;28;20056;-73
2022/05/31 00:21:18;;;;;;;7.78;2.63;;;;;;;15.87;76.84;99939.06;6270681;28;19952;-73
2022/05/31 00:24:21;;;;;;;4.18;2.50;;;;;;;15.84;77.19;99937.53;6272125;28;20052;-73
2022/05/31 00:27:24;;;;;;;4.10;2.33;;;;;;;15.79;77.17;99944.97;6304286;28;20048;-74
2022/05/31 00:30:25;;;;;;;4.72;2.50;;;;;;;15.84;76.36;99944.59;6272252;28;20041;-73
2022/05/31 00:33:27;;;;;;;6.97;2.60;;;;;;;15.84;76.23;99936.72;6277126;28;20491;-74
2022/05/31 00:36:28;;;;;;;4.63;2.25;;;;;;;15.91;75.52;99943.09;6276659;28;20073;-73
2022/05/31 00:39:30;;;;;;;10.80;2.70;;;;;;;15.94;75.27;99948.13;6275266;28;20460;-74
2022/05/31 00:42:50;;;;;;;3.90;2.42;;;;;;;15.87;75.72;99949.59;6275545;28;20123;-74
2022/05/31 00:46:03;;;;;;;4.13;2.22;;;;;;;15.81;76.09;99953.56;6275530;28;20060;-74
2022/05/31 00:49:07;;;;;;;4.93;2.50;;;;;;;15.86;75.55;99945.31;6275281;28;20045;-74
2022/05/31 00:52:21;;;;;;;4.32;2.40;;;;;;;15.79;76.07;99944.13;6276571;28;20056;-74
2022/05/31 00:55:36;;;;;;;6.75;2.50;;;;;;;15.69;76.89;99941.44;6275108;28;20045;-73
2022/05/31 00:58:46;;;;;;;3.30;2.30;;;;;;;15.71;76.86;99945.59;6276437;28;20714;-74
2022/05/31 01:01:51;;;;;;;3.35;2.40;;;;;;;15.73;76.99;99942.03;6275178;28;20048;-73
2022/05/31 01:05:01;;;;;;;6.72;2.50;;;;;;;15.73;77.10;99952.56;6276305;28;20048;-73
2022/05/31 01:08:03;;;;;;;3.78;2.25;;;;;;;15.76;76.46;99953.13;6274797;28;20179;-73
2022/05/31 01:11:05;;;;;;;4.97;2.53;;;;;;;15.73;76.41;99955.19;6275843;28;20087;-73
2022/05/31 01:14:06;;;;;;;6.93;3.08;;;;;;;15.76;76.68;99963.66;6276110;28;20491;-73
2022/05/31 01:17:14;;;;;;;3.95;2.33;;;;;;;15.73;77.32;99963.94;6275923;28;20053;-73
2022/05/31 01:20:20;;;;;;;4.68;2.13;;;;;;;15.78;77.35;99977.50;6286275;28;20064;-73
2022/05/31 01:23:24;;;;;;;4.10;2.00;;;;;;;15.74;77.19;99980.53;6300601;28;20131;-73
2022/05/31 01:26:35;;;;;;;4.03;2.35;;;;;;;15.75;77.48;99982.19;6300541;28;20506;-73
2022/05/31 01:29:39;;;;;;;5.80;2.40;;;;;;;15.72;78.05;99980.66;6299263;28;20056;-72
2022/05/31 01:32:46;;;;;;;5.05;2.05;;;;;;;15.69;77.74;99973.00;6299024;28;20049;-73
2022/05/31 01:35:47;;;;;;;5.68;2.38;;;;;;;15.71;78.78;99973.72;6332961;28;20477;-73
2022/05/31 01:39:06;;;;;;;5.53;2.20;;;;;;;15.59;79.36;99980.81;6299097;28;20056;-73
2022/05/31 01:42:20;;;;;;;3.88;2.22;;;;;;;15.58;79.78;99978.31;6299198;28;20060;-72
2022/05/31 01:45:26;;;;;;;5.78;2.67;;;;;;;15.50;80.57;99979.81;6300216;28;20391;-73
2022/05/31 01:48:30;;;;;;;9.50;2.50;;;;;;;15.52;79.91;99987.53;6299965;28;20055;-73
2022/05/31 01:51:32;;;;;;;7.95;2.80;;;;;;;15.45;80.80;99994.28;6299759;28;20040;-73
2022/05/31 01:54:34;;;;;;;3.70;2.60;;;;;;;15.51;80.44;99993.78;6300034;28;20423;-73
2022/05/31 01:57:36;;;;;;;;;;;;;;;15.51;81.14;100006.91;6299545;28;20118;-73
2022/05/31 02:00:36;;;;;;;3.53;2.40;;;;;;;15.54;81.08;100006.66;6281509;28;20033;-74
2022/05/31 02:03:41;;;;;;;4.25;2.75;;;;;;;15.45;82.31;100012.69;6265534;28;20074;-74
2022/05/31 02:06:43;;;;;;;6.10;2.90;;;;;;;15.37;82.80;100017.72;6299987;28;20056;-74
2022/05/31 02:09:46;;;;;;;4.55;2.45;;;;;;;15.40;82.65;100015.69;6299670;28;20040;-73
2022/05/31 02:12:47;;;;;;;6.32;2.70;;;;;;;15.40;83.57;100013.06;6299339;28;20044;-73
2022/05/31 02:15:48;;;;;;;4.70;2.90;;;;;;;15.44;82.93;100014.47;6299503;28;20462;-72
2022/05/31 02:22:12;;;;;;;6.60;2.90;;;;;;;15.47;83.13;100024.75;6298120;28;20044;-73
2022/05/31 02:25:12;;;;;;;9.25;2.90;;;;;;;15.42;85.03;100018.19;6299213;28;20135;-73
2022/05/31 02:28:13;;;;;;;3.58;2.90;;;;;;;15.34;84.21;100008.31;6299266;28;20044;-73
2022/05/31 02:31:14;;;;;;;8.63;2.92;;;;;;;15.31;83.90;100011.19;6299086;28;20083;-74
2022/05/31 02:34:20;;;;;;;5.28;3.33;;;;;;;15.28;84.90;100012.25;6297760;28;20445;-75
2022/05/31 02:37:22;;;;;;;10.82;2.75;;;;;;;15.29;85.39;100003.41;6298006;28;20406;-74
2022/05/31 02:40:22;;;;;;;5.15;3.03;;;;;;;15.48;84.38;100022.94;6297730;28;20058;-74
2022/05/31 02:43:23;;;;;;;6.68;3.17;;;;;;;15.48;84.52;100017.69;6297744;28;20159;-73
2022/05/31 02:46:25;;;;;;;5.22;2.95;;;;;;;15.50;83.99;100032.38;6280886;28;20055;-73
2022/05/31 02:49:26;;;;;;;5.40;3.38;;;;;;;15.50;84.24;100024.50;6297663;28;20044;-73
2022/05/31 02:52:26;;;;;;;6.00;3.20;;;;;;;15.46;85.27;100032.75;6298502;28;20125;-74
2022/05/31 02:55:27;;;;;;;5.25;3.05;;;;;;;15.45;84.69;100038.97;6297601;28;20502;-74
2022/05/31 02:58:28;;;;;;;8.07;4.15;;;;;;;15.44;85.08;100042.53;6280759;28;20105;-73
2022/05/31 03:01:33;;;;;;;3.93;2.90;;;;;;;15.39;85.23;100045.56;6298087;28;20372;-74
2022/05/31 03:04:34;;;;;;;6.90;3.22;;;;;;;15.46;84.49;100051.16;6298353;28;20080;-73
2022/05/31 03:07:35;;;;;;;7.10;3.20;;;;;;;15.47;85.60;100055.47;6280729;28;20186;-73
2022/05/31 03:10:40;;;;;;;8.25;3.80;;;;;;;15.43;86.08;100051.41;6279896;28;20057;-74
2022/05/31 03:13:42;;;;;;;7.28;3.30;;;;;;;15.47;84.80;100058.91;6272708;28;20052;-73
2022/05/31 03:16:47;;;;;;;6.80;3.60;;;;;;;15.44;86.58;100059.19;6272683;28;20045;-73
2022/05/31 03:19:57;;;;;;;8.50;3.22;;;;;;;15.44;86.76;100061.81;6272792;28;20041;-74
2022/05/31 03:23:04;;;;;;;6.03;3.60;;;;;;;15.47;86.91;100068.59;6297272;28;20056;-74
2022/05/31 03:26:08;;;;;;;5.35;3.53;;;;;;;15.44;86.58;100058.31;6297967;28;20089;-74
2022/05/31 03:29:10;;;;;;;5.47;3.40;;;;;;;15.49;86.58;100064.06;6297802;28;20044;-74
2022/05/31 03:32:11;;;;;;;;;;;;;;;15.47;86.65;100063.34;6297019;28;20044;-73
2022/05/31 03:35:12;;;;;;;7.32;3.80;;;;;;;15.47;86.42;100065.97;6297532;28;19927;-73
2022/05/31 03:38:13;;;;;;;8.10;3.90;;;;;;;15.42;87.97;100061.09;6297353;28;20043;-73
2022/05/31 03:41:14;;;;;;;7.28;4.05;;;;;;;15.50;86.75;100063.09;6279701;28;20044;-73
2022/05/31 03:44:15;;;;;;;6.75;3.40;;;;;;;15.44;87.40;100053.94;6281155;28;20049;-73
2022/05/31 03:47:15;;;;;;;8.18;4.47;;;;;;;15.48;88.60;100057.13;6271310;28;20091;-73
2022/05/31 03:50:16;;;;;;;10.45;3.85;;;;;;;15.49;89.05;100064.06;6272799;28;20037;-73
2022/05/31 03:53:17;;;;;;;6.40;4.20;;;;;;;15.58;87.19;100065.09;6272182;28;20052;-73
2022/05/31 03:56:18;;;;;;;7.53;3.97;;;;;;;15.53;87.80;100052.34;6272339;28;20041;-73
2022/05/31 03:59:19;;;;;;;6.40;3.80;;;;;;;15.54;87.75;100061.88;6266649;28;20450;-73
2022/05/31 04:02:19;;;;;;;13.55;3.55;;;;;;;15.60;87.97;100065.81;6275220;28;20048;-73
2022/05/31 04:05:21;;;;;;;7.82;4.03;;;;;;;15.57;87.43;100058.19;6288762;28;20376;-73
2022/05/31 04:08:22;;;;;;;10.90;4.27;;;;;;;15.62;87.20;100069.97;6296827;28;20059;-73
2022/05/31 04:11:24;;;;;;;8.87;4.00;;;;;;;15.63;87.17;100066.41;6296631;28;20285;-73
2022/05/31 04:14:24;;;;;;;7.85;4.22;;;;;;;15.69;87.82;100065.06;6295670;28;20090;-73
2022/05/31 04:17:26;;;;;;;11.20;4.45;;;;;;;15.71;87.34;100065.78;6283661;28;20045;-73
2022/05/31 04:20:27;;;;;;;7.65;3.90;;;;;;;15.76;89.08;100070.69;6271837;28;20045;-72
2022/05/31 04:26:48;;;;;;;10.63;3.75;;;;;;;15.79;86.63;100070.41;6284771;28;20047;-73
2022/05/31 04:29:49;;;;;;;11.15;4.32;;;;;;;15.83;87.07;100070.03;6284267;28;20037;-74
2022/05/31 04:32:51;;;;;;;8.35;4.00;;;;;;;15.79;87.88;100073.03;6287906;28;20047;-74
2022/05/31 04:36:05;;;;;;;10.45;4.13;;;;;;;15.84;87.97;100068.25;6272485;28;20049;-74
2022/05/31 04:39:06;;;;;;;10.68;4.10;;;;;;;15.91;86.31;100066.78;6279753;28;20072;-74
2022/05/31 04:42:10;;;;;;;7.40;4.05;;;;;;;15.90;87.17;100075.63;6272844;28;20045;-74
2022/05/31 04:45:11;;;;;;;6.85;3.92;;;;;;;15.88;88.56;100075.75;6252554;28;20541;-74
2022/05/31 04:48:12;;;;;;;7.75;4.60;;;;;;;16.03;87.73;100078.91;6269214;28;20075;-73
2022/05/31 04:51:14;;;;;;;9.75;3.83;;;;;;;16.12;87.71;100077.28;6270236;28;20060;-74
2022/05/31 04:54:17;;;;;;;7.82;4.22;;;;;;;16.22;85.08;100085.25;6268972;28;20127;-73
2022/05/31 04:57:18;;;;;;;8.93;4.45;;;;;;;16.35;84.17;100083.28;6270228;28;20045;-73
2022/05/31 05:00:19;;;;;;;7.82;4.60;;;;;;;16.43;82.70;100091.38;6252567;28;20053;-73
2022/05/31 05:03:20;;;;;;;13.95;4.20;;;;;;;16.50;81.52;100089.84;6268924;28;20483;-73
2022/05/31 05:06:22;;;;;;;11.95;4.30;;;;;;;16.58;82.14;100089.22;6270193;28;20037;-75
2022/05/31 05:09:23;;;;;;;;;;;;;;;16.63;82.13;100094.91;6269445;28;20049;-74
2022/05/31 05:12:23;;;;;;;6.80;3.92;;;;;;;16.66;83.38;100102.56;6268743;28;20376;-74
2022/05/31 05:15:24;;;;;;;12.60;3.75;;;;;;;16.67;82.76;100096.31;6268888;28;20125;-74
2022/05/31 05:18:26;;;;;;;10.45;4.45;;;;;;;16.83;82.37;100093.22;6270935;28;20128;-73
2022/05/31 05:21:27;;;;;;;13.68;5.43;;;;;;;16.87;81.87;100099.91;6273515;28;20048;-73
2022/05/31 05:24:28;;;;;;;6.15;4.25;;;;;;;16.86;80.80;100100.88;6274436;28;20072;-73
2022/05/31 05:27:28;;;;;;;18.10;4.90;;;;;;;16.99;79.61;100111.19;6274556;28;20041;-73
2022/05/31 05:30:38;;;;;;;11.90;4.50;;;;;;;17.12;79.91;100117.03;6273176;28;20347;-73
2022/05/31 05:33:39;;;;;;;7.18;4.45;;;;;;;17.14;77.87;100110.81;6274215;28;20041;-74
2022/05/31 05:36:40;;;;;;;6.38;3.80;;;;;;;17.15;78.74;100113.28;6273184;28;20037;-73
2022/05/31 05:39:40;;;;;;;9.95;4.63;;;;;;;17.10;78.60;100118.97;6274218;28;20044;-73
2022/05/31 05:42:42;;;;;;;13.32;4.53;;;;;;;17.21;78.05;100115.41;6273013;28;20044;-73
2022/05/31 05:45:43;;;;;;;13.45;4.80;;;;;;;17.31;82.66;100110.97;6272955;28;20069;-73
2022/05/31 05:48:45;;;;;;;8.82;5.03;;;;;;;17.43;78.83;100111.69;6274187;28;20502;-74
2022/05/31 05:51:48;;;;;;;10.35;4.50;;;;;;;17.56;76.00;100110.59;6273919;28;20403;-73
2022/05/31 05:54:49;;;;;;;13.38;4.80;;;;;;;17.70;75.11;100113.66;6272578;28;20064;-74
2022/05/31 05:57:49;;;;;;;12.10;4.43;;;;;;;17.78;76.14;100114.81;6272715;28;20428;-74
2022/05/31 06:00:52;;;;;;;9.38;4.63;;;;;;;17.90;75.00;100119.81;6272815;28;20045;-74
2022/05/31 06:04:06;;;;;;;13.35;4.53;;;;;;;17.83;75.74;100116.09;6272285;28;20044;-74
2022/05/31 06:07:26;;;;;;;9.05;4.90;;;;;;;17.90;76.06;100119.81;6273755;28;20060;-74
2022/05/31 06:10:33;;;;;;;10.60;5.10;;;;;;;17.91;74.67;100123.28;6273413;28;20080;-74
2022/05/31 06:13:48;;;;;;;7.30;4.40;;;;;;;18.08;73.60;100119.97;6273275;28;20499;-74
2022/05/31 06:16:54;;;;;;;9.77;4.85;;;;;;;18.17;73.00;100118.28;6273426;28;20048;-75
2022/05/31 06:19:55;;;;;;;12.07;4.72;;;;;;;18.33;74.31;100112.44;6273276;28;20041;-74
2022/05/31 06:22:57;;;;;;;11.13;5.23;;;;;;;18.42;72.69;100118.66;6272274;28;20118;-74
2022/05/31 06:25:58;;;;;;;;;;;;;;;18.59;71.23;100125.00;6272524;28;20056;-75
2022/05/31 06:28:59;;;;;;;10.68;4.32;;;;;;;18.78;70.30;100129.38;6272623;28;20023;-73
2022/05/31 06:32:00;;;;;;;11.70;4.60;;;;;;;18.69;70.29;100128.44;6271833;28;20045;-73
2022/05/31 06:35:01;;;;;;;11.20;4.68;;;;;;;18.62;71.20;100122.09;6272803;28;20095;-73
2022/05/31 06:38:03;;;;;;;8.65;4.85;;;;;;;18.64;69.39;100123.59;6271716;28;20037;-74
2022/05/31 06:41:04;;;;;;;;;;;;;;;18.65;71.20;100127.06;6279032;28;20044;-74
2022/05/31 06:44:05;;;;;;;11.93;4.28;;;;;;;18.70;69.69;100132.78;6269111;28;20358;-75
2022/05/31 06:47:08;;;;;;;10.50;4.57;;;;;;;18.89;68.88;100127.44;6278317;28;20047;-74
2022/05/31 06:50:09;;;;;;;6.72;4.20;;;;;;;19.02;67.95;100124.44;6272049;28;20171;-74
2022/05/31 07:13:35;;;;;;;12.65;5.10;;;;;;;19.77;62.76;100124.31;6265332;28;20061;-74
2022/05/31 07:16:37;;;;;;;8.00;5.00;;;;;;;19.94;62.47;100127.94;6279199;28;20040;-73
2022/05/31 07:19:42;;;;;;;14.88;5.45;;;;;;;20.07;61.92;100127.53;6291868;28;20036;-74
2022/05/31 07:22:42;;;;;;;11.07;4.05;;;;;;;20.29;58.83;100129.69;6277943;28;20071;-74
2022/05/31 07:25:44;;;;;;;5.30;3.33;;;;;;;20.36;56.92;100121.94;6282526;28;20102;-75
2022/05/31 07:28:45;;;;;;;6.70;3.60;;;;;;;20.64;57.77;100121.84;6254187;28;20041;-74
2022/05/31 07:31:46;;;;;;;11.77;4.37;;;;;;;20.56;57.32;100125.22;6256761;28;20040;-74
2022/05/31 07:34:49;;;;;;;8.27;3.05;;;;;;;20.77;57.70;100118.75;6268439;28;20509;-74
2022/05/31 07:37:50;;;;;;;10.30;3.70;;;;;;;20.12;56.04;100117.31;6289663;28;20036;-74
2022/05/31 07:40:51;;;;;;;7.55;3.50;;;;;;;20.26;58.79;100122.06;6294437;28;20052;-74
2022/05/31 07:43:52;;;;;;;7.77;3.73;;;;;;;20.61;57.84;100119.47;6278612;28;20072;-74
2022/05/31 07:46:54;;;;;;;8.60;3.50;;;;;;;20.96;54.87;100120.31;6296561;28;20055;-74
2022/05/31 07:49:56;;;;;;;5.57;3.92;;;;;;;20.88;56.31;100118.50;6296323;28;20494;-74
2022/05/31 07:52:59;;;;;;;10.15;3.90;;;;;;;21.20;56.74;100127.56;6261962;28;20434;-74
2022/05/31 07:56:06;;;;;;;6.55;3.58;;;;;;;21.29;55.20;100119.47;6296104;28;20040;-74
2022/05/31 07:59:07;;;;;;;10.98;4.07;;;;;;;21.42;57.49;100124.34;6294881;28;20043;-74
2022/05/31 08:02:08;;;;;;;16.27;4.03;;;;;;;21.73;52.82;100123.72;6296055;28;20074;-74
2022/05/31 08:05:09;;;;;;;10.67;3.67;;;;;;;21.67;53.18;100124.38;6277842;28;20140;-74
2022/05/31 08:08:11;;;;;;;10.37;5.00;;;;;;;21.86;52.57;100123.22;6278146;28;20040;-74
2022/05/31 08:11:15;;;;;;;9.45;4.68;;;;;;;22.12;52.23;100123.91;6294700;28;20736;-74
2022/05/31 08:14:16;;;;;;;9.07;5.07;;;;;;;21.99;51.64;100122.72;6294375;28;20053;-74
2022/05/31 08:17:17;;;;;;;9.57;5.43;;;;;;;22.18;52.98;100125.06;6277902;28;20045;-74
2022/05/31 08:20:18;;;;;;;11.50;4.53;;;;;;;22.25;51.31;100131.38;6278028;28;20068;-75
2022/05/31 08:23:21;;;;;;;6.93;4.00;;;;;;;22.08;53.39;100132.38;6277921;28;20284;-75
2022/05/31 08:26:24;;;;;;;9.63;4.32;;;;;;;22.52;51.40;100132.03;6261880;28;20040;-75
2022/05/31 08:29:25;;;;;;;9.10;4.65;;;;;;;22.75;49.33;100129.47;6278209;28;20162;-75
2022/05/31 08:32:26;;;;;;;8.60;4.17;;;;;;;22.01;51.33;100142.00;6261281;28;20624;-75
2022/05/31 08:35:27;;;;;;;9.05;4.63;;;;;;;21.58;51.26;100139.47;6277762;28;20041;-74
2022/05/31 08:38:28;;;;;;;14.57;5.10;;;;;;;21.43;52.97;100131.28;6294447;28;20048;-74
2022/05/31 08:41:31;;;;;;;11.88;6.22;;;;;;;21.78;51.34;100142.63;6294349;28;20051;-74
2022/05/31 08:44:36;;;;;;;13.27;6.40;;;;;;;21.60;54.07;100133.97;6294295;28;20487;-74
2022/05/31 08:47:43;;;;;;;12.75;6.28;;;;;;;21.60;53.51;100137.50;6294279;28;20332;-74
2022/05/31 08:58:16;;;;;;;12.25;6.32;;;;;;;22.84;52.09;100140.94;6300286;28;20044;-75
2022/05/31 09:01:24;;;;;;;12.27;6.88;;;;;;;22.32;51.67;100143.03;6300251;28;20505;-74
2022/05/31 09:04:45;;;;;;;15.98;7.13;;;;;;;22.25;52.82;100143.84;6300127;28;20051;-74
2022/05/31 09:07:50;;;;;;;13.95;6.93;;;;;;;22.18;53.80;100141.00;6298604;28;20062;-74
2022/05/31 09:10:57;;;;;;;14.65;7.13;;;;;;;22.26;54.00;100138.38;6282063;28;20131;-74
2022/05/31 09:14:13;;;;;;;15.05;7.55;;;;;;;22.27;53.23;100137.38;6298321;28;20045;-74
2022/05/31 09:17:51;;;;;;;18.85;8.98;;;;;;;22.80;50.82;100137.78;6298578;28;20123;-74
2022/05/31 09:21:01;;;;;;;14.43;7.97;;;;;;;22.92;50.13;100143.56;6298548;28;20040;-74
2022/05/31 09:24:02;;;;;;;18.00;7.18;;;;;;;22.60;51.12;100139.16;6298371;28;20457;-74
2022/05/31 09:27:08;;;;;;;11.90;7.00;;;;;;;22.90;53.18;100143.72;6282055;28;20135;-74
2022/05/31 09:30:15;;;;;;;15.65;7.55;;;;;;;22.99;53.46;100131.22;6298328;28;20040;-74
2022/05/31 09:33:28;;;;;;;17.25;7.80;;;;;;;23.13;51.76;100141.16;6298238;28;20045;-74
2022/05/31 09:36:53;;;;;;;14.48;6.70;;;;;;;23.10;51.01;100140.69;6299355;28;20087;-74
2022/05/31 09:40:23;;;;;;;22.83;7.28;;;;;;;23.00;50.61;100140.88;6299363;28;20056;-74
2022/05/31 09:43:35;;;;;;;15.18;7.15;;;;;;;22.80;52.39;100139.63;6298907;28;20128;-74
2022/05/31 09:46:42;;;;;;;11.15;5.50;;;;;;;22.80;51.37;100145.75;6299213;28;20419;-74
2022/05/31 09:49:48;;;;;;;13.10;5.53;;;;;;;22.98;51.28;100144.69;6299092;28;20119;-74
2022/05/31 09:52:56;;;;;;;15.18;5.70;;;;;;;24.13;50.32;100151.06;6298929;28;20091;-74
2022/05/31 09:59:26;;;;;;;13.27;5.18;;;;;;;23.40;49.34;100147.03;6298786;28;20048;-74
2022/05/31 10:02:36;;;;;;;11.63;4.97;;;;;;;23.83;50.39;100147.47;6298740;28;20455;-74
2022/05/31 10:05:39;;;;;;;13.07;4.65;;;;;;;23.86;49.55;100144.41;6296607;28;20047;-74
2022/05/31 10:08:44;;;;;;;10.82;4.85;;;;;;;23.67;48.64;100142.22;6298636;28;20041;-74
2022/05/31 10:11:45;;;;;;;10.10;5.15;;;;;;;23.91;48.37;100144.72;6297474;28;20124;-75
2022/05/31 10:14:49;;;;;;;13.07;5.15;;;;;;;23.86;47.72;100144.41;6263836;28;20055;-74
2022/05/31 10:18:00;;;;;;;8.80;4.95;;;;;;;23.66;48.00;100138.72;6297196;28;20494;-74
2022/05/31 10:21:03;;;;;;;8.88;4.38;;;;;;;23.60;48.37;100141.28;6297128;28;20106;-74
2022/05/31 10:24:24;;;;;;;11.23;4.43;;;;;;;23.59;49.43;100137.75;6296925;28;20044;-74
2022/05/31 10:27:31;;;;;;;8.13;4.25;;;;;;;23.51;48.72;100136.00;6330730;28;20044;-74
2022/05/31 10:30:32;;;;;;;6.35;3.80;;;;;;;23.22;49.10;100128.66;6280703;28;20044;-75
2022/05/31 10:33:34;;;;;;;11.15;4.07;;;;;;;23.06;50.51;100126.06;6296775;28;20040;-74
2022/05/31 10:36:49;;;;;;;9.75;4.82;;;;;;;23.17;51.39;100138.19;6296608;28;20048;-75
2022/05/31 10:40:02;;;;;;;9.10;3.80;;;;;;;22.89;50.36;100133.25;6296648;28;20049;-75
2022/05/31 10:43:15;;;;;;;7.43;4.28;;;;;;;22.98;51.14;100128.72;6296633;28;20040;-74
2022/05/31 10:46:37;;;;;;;9.05;4.03;;;;;;;22.96;51.52;100128.91;6296330;28;20049;-74
2022/05/31 10:49:39;;;;;;;8.73;4.30;;;;;;;23.09;50.69;100121.22;6296560;28;20075;-75
2022/05/31 10:53:04;;;;;;;7.68;4.07;;;;;;;23.10;50.18;100117.56;6296205;28;20052;-74
2022/05/31 10:56:15;;;;;;;7.95;4.28;;;;;;;23.04;51.42;100114.75;6296273;28;20047;-75
2022/05/31 10:59:34;;;;;;;10.38;4.00;;;;;;;22.88;51.76;100116.47;6285677;28;20055;-75
2022/05/31 11:02:56;;;;;;;9.68;4.20;;;;;;;23.02;52.30;100116.75;6271343;28;20571;-74
2022/05/31 11:06:35;;;;;;;9.57;4.22;;;;;;;22.87;53.00;100119.28;6271298;28;20064;-74
2022/05/31 11:13:22;;;;;;;9.98;4.03;;;;;;;22.94;52.33;100110.47;6285955;28;20045;-74
2022/05/31 11:16:49;;;;;;;7.50;4.15;;;;;;;23.26;53.16;100113.97;6283571;28;20110;-73
2022/05/31 11:20:16;;;;;;;8.85;4.32;;;;;;;23.26;52.39;100106.00;6286460;28;20113;-74
2022/05/31 11:23:49;;;;;;;7.93;3.85;;;;;;;23.40;50.73;100100.94;6296858;28;20049;-74
2022/05/31 11:27:11;;;;;;;5.22;3.47;;;;;;;23.41;49.77;100100.78;6329026;28;20124;-74
2022/05/31 11:30:23;;;;;;;7.40;3.88;;;;;;;23.51;50.48;100104.03;6318916;28;20053;-74
2022/05/31 11:33:39;;;;;;;6.93;3.17;;;;;;;23.62;50.18;100092.16;6296494;28;20513;-74
2022/05/31 11:36:40;;;;;;;8.38;3.20;;;;;;;23.77;50.83;100088.75;6295236;28;20505;-74
2022/05/31 11:39:47;;;;;;;5.57;3.77;;;;;;;23.99;50.51;100087.03;6295095;28;20048;-74
2022/05/31 11:42:58;;;;;;;9.68;4.18;;;;;;;24.19;49.77;100088.19;6278489;28;20059;-74
2022/05/31 11:46:43;;;;;;;7.70;4.15;;;;;;;24.09;47.69;100085.78;6296349;28;20045;-74
2022/05/31 11:49:50;;;;;;;8.90;4.15;;;;;;;24.02;48.25;100087.50;6295187;28;20044;-74
2022/05/31 11:53:18;;;;;;;11.55;3.90;;;;;;;24.11;48.26;100081.13;6294943;28;20101;-75
2022/05/31 11:56:30;;;;;;;8.35;4.00;;;;;;;24.03;49.81;100083.84;6311561;28;20137;-74
2022/05/31 11:59:39;;;;;;;10.30;4.05;;;;;;;24.08;50.22;100084.13;6296100;28;20039;-74
2022/05/31 12:03:04;;;;;;;10.68;4.18;;;;;;;24.05;47.84;100078.31;6295993;28;20050;-75
2022/05/31 12:06:21;;;;;;;11.43;4.20;;;;;;;23.94;48.21;100074.25;6294846;28;20106;-74
2022/05/31 12:09:35;;;;;;;8.18;3.95;;;;;;;24.22;49.21;100076.34;6294723;28;20044;-74
2022/05/31 12:12:38;;;;;;;9.32;4.35;;;;;;;25.05;46.65;100069.06;6295945;28;20047;-74
2022/05/31 12:15:45;;;;;;;8.98;4.10;;;;;;;24.73;46.92;100065.81;6294440;28;20060;-74
2022/05/31 12:18:51;;;;;;;7.43;4.10;;;;;;;24.74;47.52;100057.59;6295845;28;20043;-74
2022/05/31 12:22:05;;;;;;;8.23;4.18;;;;;;;24.87;46.53;100056.97;6295765;28;20044;-75
2022/05/31 12:25:15;;;;;;;9.10;4.05;;;;;;;24.72;47.15;100056.16;6295795;28;20045;-74
2022/05/31 12:28:30;;;;;;;6.23;4.00;;;;;;;24.48;47.05;100042.06;6295349;28;20041;-75
2022/05/31 12:31:37;;;;;;;7.93;4.13;;;;;;;24.65;47.66;100048.06;6328057;28;20286;-74
2022/05/31 12:34:40;;;;;;;7.22;4.20;;;;;;;25.48;43.40;100045.13;6295503;28;20045;-74
2022/05/31 12:38:00;;;;;;;9.68;4.13;;;;;;;25.89;44.24;100045.28;6295614;28;20094;-74
2022/05/31 12:41:01;;;;;;;7.40;4.05;;;;;;;25.02;46.13;100043.59;6295526;28;20045;-74
2022/05/31 12:44:14;;;;;;;8.13;3.72;;;;;;;24.74;46.98;100036.25;6274468;28;20044;-73
2022/05/31 12:47:32;;;;;;;8.00;4.22;;;;;;;24.49;46.86;100041.06;6283414;28;20455;-74
2022/05/31 12:50:47;;;;;;;10.77;4.78;;;;;;;24.53;48.44;100039.69;6301918;28;20106;-74
2022/05/31 12:54:06;;;;;;;11.80;4.80;;;;;;;24.43;47.65;100038.28;6270101;28;20045;-74
2022/05/31 12:57:24;;;;;;;9.48;4.15;;;;;;;24.50;47.67;100036.56;6269096;28;20048;-74
2022/05/31 13:00:47;;;;;;;13.20;4.75;;;;;;;24.86;49.21;100028.63;6270705;28;20041;-74
2022/05/31 13:03:53;;;;;;;12.00;5.18;;;;;;;25.31;47.75;100032.00;6269126;28;20492;-73
2022/05/31 13:07:17;;;;;;;9.55;5.78;;;;;;;25.47;45.56;100017.59;6267010;28;20072;-73
2022/05/31 13:10:37;;;;;;;10.43;6.25;;;;;;;25.93;44.69;100027.03;6267332;28;20474;-75
2022/05/31 13:20:39;;;;;;;14.02;7.88;;;;;;;25.42;45.17;100013.81;6267112;28;20525;-74
2022/05/31 13:23:41;;;;;;;16.45;8.77;;;;;;;25.40;45.11;100010.53;6267272;28;20052;-74
2022/05/31 13:26:43;;;;;;;16.75;8.50;;;;;;;25.09;46.21;100006.28;6234035;28;20481;-75
2022/05/31 13:29:44;;;;;;;14.45;8.93;;;;;;;24.84;46.86;100003.13;6267238;28;20139;-75
2022/05/31 13:32:46;;;;;;;16.80;8.88;;;;;;;24.53;48.25;99998.88;6217563;28;20100;-74
2022/05/31 13:36:15;;;;;;;17.45;9.80;;;;;;;24.36;47.81;100003.53;6234289;28;20118;-74
2022/05/31 13:39:17;;;;;;;18.27;10.32;;;;;;;24.52;47.83;100005.19;6286678;28;20057;-74
2022/05/31 13:42:35;;;;;;;17.00;10.23;;;;;;;24.67;49.02;99991.88;6306638;28;20041;-74
2022/05/31 13:45:36;;;;;;;19.40;10.32;;;;;;;24.83;47.69;99993.47;6256671;28;20079;-74
2022/05/31 13:48:39;;;;;;;19.80;10.75;;;;;;;24.93;47.59;99994.00;6273002;28;20037;-74
2022/05/31 13:51:49;;;;;;;17.92;10.48;;;;;;;25.00;48.01;99999.38;6256237;28;20057;-75
2022/05/31 13:55:11;;;;;;;17.98;10.93;;;;;;;24.72;47.92;99992.94;6274069;28;20037;-75
2022/05/31 13:58:16;;;;;;;18.90;10.48;;;;;;;24.53;47.67;100005.03;6272490;28;20057;-74
2022/05/31 14:01:39;;;;;;;18.98;10.52;;;;;;;24.64;47.58;99995.72;6273910;28;20099;-74
2022/05/31 14:04:40;;;;;;;20.45;11.35;;;;;;;24.64;48.62;99992.22;6289357;28;20146;-74
2022/05/31 14:07:41;;;;;;;18.67;11.13;;;;;;;24.80;48.22;99993.84;6272746;28;20126;-74
2022/05/31 14:10:49;;;;;;;22.40;12.07;;;;;;;24.90;49.04;99986.38;6239563;28;20049;-75
2022/05/31 14:13:54;;;;;;;18.65;11.23;;;;;;;24.85;48.43;99988.78;6272157;28;20119;-75
2022/05/31 14:16:57;;;;;;;18.10;11.15;;;;;;;24.62;47.61;99983.59;6305747;28;20450;-75
2022/05/31 14:19:57;;;;;;;19.30;11.35;;;;;;;24.41;49.43;99971.81;6255690;28;20080;-74
2022/05/31 14:23:04;;;;;;;21.13;11.82;;;;;;;24.35;48.82;99977.88;6255574;28;20053;-74
2022/05/31 14:26:06;;;;;;;20.17;11.20;;;;;;;24.48;49.13;99975.41;6273273;28;20044;-74
2022/05/31 14:29:27;;;;;;;18.95;10.40;;;;;;;24.19;48.30;99975.41;6271995;28;20057;-74
2022/05/31 14:32:45;;;;;;;18.97;11.97;;;;;;;24.14;49.38;99968.78;6273229;28;20126;-75
2022/05/31 14:35:50;;;;;;;18.40;11.35;;;;;;;24.10;48.46;99967.50;6271933;28;20040;-74
2022/05/31 14:38:51;;;;;;;25.58;11.60;;;;;;;24.16;48.88;99960.63;6271764;28;20491;-74
2022/05/31 14:41:57;;;;;;;19.90;11.20;;;;;;;24.09;50.22;99952.53;6238947;28;20045;-74
2022/05/31 14:44:58;;;;;;;23.90;11.95;;;;;;;24.02;50.76;99959.59;6272934;28;20286;-74
2022/05/31 14:48:37;;;;;;;17.65;10.75;;;;;;;23.77;50.92;99955.53;6255172;28;20388;-74
2022/05/31 14:51:40;;;;;;;19.83;10.90;;;;;;;23.78;50.80;99947.34;6271211;28;20079;-74
2022/05/31 14:54:44;;;;;;;18.98;11.00;;;;;;;23.87;51.03;99950.78;6272552;28;20053;-74
2022/05/31 15:01:16;;;;;;;19.70;11.02;;;;;;;23.67;52.53;99950.44;6272454;28;20041;-74
2022/05/31 15:04:26;;;;;;;17.60;10.63;;;;;;;23.68;52.34;99949.41;6272460;28;20045;-74
2022/05/31 15:07:31;;;;;;;16.38;10.98;;;;;;;23.61;51.27;99940.50;6271194;28;20479;-74
2022/05/31 15:10:35;;;;;;;18.90;10.23;;;;;;;23.68;52.42;99936.94;6271080;28;20479;-75
2022/05/31 15:20:17;;;;;;;;;;;;;;;23.72;51.65;99922.25;6276303;28;20028;-75
2022/05/31 15:23:27;;;;;;;15.65;9.85;;;;;;;23.91;50.96;99920.09;6280797;28;19921;-74